Gresham, Oregon
Current Conditions -  °F | °C
As of 9:53 PM on Saturday 20 Dec 2014 (Local Time) from KTTD Reporting Station
Light Rain Light Rain  
Wind Chill: 59°   Ceiling: 2100
Heat Index: 59°   Visibility: 10mi
Dew Point: 56°   Wind: 18mph
Humidity: 90%   Direction: 220°SW
Pressure: 29.66"   Gusts: 26mph
Location:  45.51°N, 122.43°W
Report Text: KTTD 210553Z AUTO 22016G23KT 10SM -RA OVC021 15/13 A2966 RMK AO2 PK WND 23027/0515 SLP044 P0000 60015 T01500133 10150 20083 53005
Loading
Personal Weather Stations






























Interactive Weather Map New forecast layout! Learn more

10-Day Weather Forecast

Advertisements
Track Severe Weather on mobile